sensor_id;sensor_type;location;lat;lon;timestamp;pressure;altitude;pressure_sealevel;temperature;humidity
35023;BME280;21214;44.912;8.204;2023-06-24T00:00:55;99801.03;;;24.85;49.61
35023;BME280;21214;44.912;8.204;2023-06-24T00:03:20;99796.91;;;24.82;49.13
35023;BME280;21214;44.912;8.204;2023-06-24T00:05:46;99796.25;;;24.69;50.19
35023;BME280;21214;44.912;8.204;2023-06-24T00:08:17;99797.06;;;24.69;50.24
35023;BME280;21214;44.912;8.204;2023-06-24T00:10:47;99792.38;;;24.65;50.28
35023;BME280;21214;44.912;8.204;2023-06-24T00:13:13;99795.63;;;24.55;51.08
35023;BME280;21214;44.912;8.204;2023-06-24T00:15:39;99788.81;;;24.34;51.95
35023;BME280;21214;44.912;8.204;2023-06-24T00:18:11;99798.78;;;24.34;52.15
35023;BME280;21214;44.912;8.204;2023-06-24T00:20:36;99798.19;;;24.32;52.79
35023;BME280;21214;44.912;8.204;2023-06-24T00:23:01;99798.69;;;24.40;53.02
35023;BME280;21214;44.912;8.204;2023-06-24T00:25:27;99805.81;;;24.35;52.24
35023;BME280;21214;44.912;8.204;2023-06-24T00:27:53;99815.09;;;24.39;52.62
35023;BME280;21214;44.912;8.204;2023-06-24T00:30:18;99812.66;;;24.37;53.40
35023;BME280;21214;44.912;8.204;2023-06-24T00:32:44;99812.25;;;24.34;54.00
35023;BME280;21214;44.912;8.204;2023-06-24T00:35:09;99812.25;;;24.34;53.88
35023;BME280;21214;44.912;8.204;2023-06-24T00:37:37;99807.75;;;24.28;53.97
35023;BME280;21214;44.912;8.204;2023-06-24T00:40:03;99804.25;;;24.27;53.58
35023;BME280;21214;44.912;8.204;2023-06-24T00:42:29;99805.31;;;24.26;53.99
35023;BME280;21214;44.912;8.204;2023-06-24T00:44:55;99807.19;;;24.26;53.91
35023;BME280;21214;44.912;8.204;2023-06-24T00:47:22;99801.66;;;24.21;53.59
35023;BME280;21214;44.912;8.204;2023-06-24T00:49:47;99812.22;;;24.16;54.19
35023;BME280;21214;44.912;8.204;2023-06-24T00:52:13;99813.13;;;24.09;54.33
35023;BME280;21214;44.912;8.204;2023-06-24T00:54:44;99808.63;;;24.03;55.05
35023;BME280;21214;44.912;8.204;2023-06-24T00:57:10;99810.81;;;23.95;54.52
35023;BME280;21214;44.912;8.204;2023-06-24T00:59:36;99810.03;;;23.88;54.84
35023;BME280;21214;44.912;8.204;2023-06-24T01:02:02;99810.03;;;23.88;55.11
35023;BME280;21214;44.912;8.204;2023-06-24T01:04:33;99811.34;;;23.85;55.10
35023;BME280;21214;44.912;8.204;2023-06-24T01:06:59;99805.47;;;23.88;54.59
35023;BME280;21214;44.912;8.204;2023-06-24T01:09:25;99812.44;;;23.78;54.95
35023;BME280;21214;44.912;8.204;2023-06-24T01:11:51;99818.03;;;23.76;54.89
35023;BME280;21214;44.912;8.204;2023-06-24T01:14:16;99820.13;;;23.74;54.76
35023;BME280;21214;44.912;8.204;2023-06-24T01:32:34;99837.47;;;23.28;55.14
35023;BME280;21214;44.912;8.204;2023-06-24T01:35:09;99836.03;;;23.26;55.98
35023;BME280;21214;44.912;8.204;2023-06-24T01:37:55;99836.53;;;22.78;58.10
35023;BME280;21214;44.912;8.204;2023-06-24T01:40:56;99830.34;;;22.78;57.99
35023;BME280;21214;44.912;8.204;2023-06-24T01:43:15;99823.06;;;22.85;58.52
35023;BME280;21214;44.912;8.204;2023-06-24T01:45:42;99822.44;;;22.83;58.32
35023;BME280;21214;44.912;8.204;2023-06-24T01:48:09;99816.72;;;22.73;58.86
35023;BME280;21214;44.912;8.204;2023-06-24T01:50:36;99823.28;;;22.77;58.43
35023;BME280;21214;44.912;8.204;2023-06-24T01:53:04;99826.69;;;22.53;59.83
35023;BME280;21214;44.912;8.204;2023-06-24T01:55:32;99819.25;;;22.55;59.80
35023;BME280;21214;44.912;8.204;2023-06-24T01:57:58;99821.69;;;22.56;60.00
35023;BME280;21214;44.912;8.204;2023-06-24T02:00:25;99814.66;;;22.62;60.62
35023;BME280;21214;44.912;8.204;2023-06-24T02:02:51;99818.38;;;22.67;60.65
35023;BME280;21214;44.912;8.204;2023-06-24T02:05:18;99818.13;;;22.69;61.17
35023;BME280;21214;44.912;8.204;2023-06-24T02:07:46;99821.25;;;22.66;62.00
35023;BME280;21214;44.912;8.204;2023-06-24T02:10:13;99819.41;;;22.60;62.99
35023;BME280;21214;44.912;8.204;2023-06-24T02:12:39;99829.66;;;22.38;65.21
35023;BME280;21214;44.912;8.204;2023-06-24T02:15:06;99824.72;;;22.28;66.52
35023;BME280;21214;44.912;8.204;2023-06-24T02:17:32;99830.56;;;22.12;68.47
35023;BME280;21214;44.912;8.204;2023-06-24T02:19:58;99835.09;;;22.05;69.64
35023;BME280;21214;44.912;8.204;2023-06-24T02:22:25;99835.09;;;22.05;69.25
35023;BME280;21214;44.912;8.204;2023-06-24T02:24:51;99828.28;;;21.89;69.06
35023;BME280;21214;44.912;8.204;2023-06-24T02:27:17;99823.31;;;21.86;69.23
35023;BME280;21214;44.912;8.204;2023-06-24T02:29:43;99835.94;;;21.86;69.24
35023;BME280;21214;44.912;8.204;2023-06-24T02:32:09;99826.84;;;21.80;69.47
35023;BME280;21214;44.912;8.204;2023-06-24T02:34:35;99824.97;;;21.87;69.23
35023;BME280;21214;44.912;8.204;2023-06-24T02:37:00;99825.63;;;21.83;69.17
35023;BME280;21214;44.912;8.204;2023-06-24T02:39:25;99831.44;;;21.73;69.95
35023;BME280;21214;44.912;8.204;2023-06-24T02:41:51;99835.53;;;21.56;70.90
35023;BME280;21214;44.912;8.204;2023-06-24T02:44:17;99830.38;;;21.35;72.94
35023;BME280;21214;44.912;8.204;2023-06-24T02:46:43;99840.78;;;20.83;75.59
35023;BME280;21214;44.912;8.204;2023-06-24T02:49:10;99833.88;;;20.55;77.02
35023;BME280;21214;44.912;8.204;2023-06-24T02:51:38;99830.44;;;20.67;77.15
35023;BME280;21214;44.912;8.204;2023-06-24T02:54:03;99825.91;;;20.74;76.90
35023;BME280;21214;44.912;8.204;2023-06-24T02:56:52;99823.78;;;20.63;77.35
35023;BME280;21214;44.912;8.204;2023-06-24T02:59:26;99835.06;;;20.46;77.94
35023;BME280;21214;44.912;8.204;2023-06-24T03:01:52;99831.53;;;20.38;78.59
35023;BME280;21214;44.912;8.204;2023-06-24T03:04:18;99830.72;;;20.38;78.55
35023;BME280;21214;44.912;8.204;2023-06-24T03:06:45;99832.88;;;20.28;79.54
35023;BME280;21214;44.912;8.204;2023-06-24T03:09:11;99837.97;;;20.16;80.77
35023;BME280;21214;44.912;8.204;2023-06-24T03:11:43;99848.44;;;20.04;81.25
35023;BME280;21214;44.912;8.204;2023-06-24T03:14:11;99851.78;;;20.13;80.54
35023;BME280;21214;44.912;8.204;2023-06-24T03:16:41;99852.75;;;20.06;81.50
35023;BME280;21214;44.912;8.204;2023-06-24T03:19:13;99847.88;;;20.16;80.58
35023;BME280;21214;44.912;8.204;2023-06-24T03:21:38;99843.56;;;20.21;80.76
35023;BME280;21214;44.912;8.204;2023-06-24T03:24:08;99840.16;;;20.34;80.29
35023;BME280;21214;44.912;8.204;2023-06-24T03:26:37;99851.75;;;20.41;80.29
35023;BME280;21214;44.912;8.204;2023-06-24T03:29:04;99846.44;;;20.48;80.24
35023;BME280;21214;44.912;8.204;2023-06-24T03:31:31;99859.38;;;20.44;81.10
35023;BME280;21214;44.912;8.204;2023-06-24T03:33:57;99853.84;;;20.46;82.33
35023;BME280;21214;44.912;8.204;2023-06-24T03:36:25;99861.88;;;20.46;82.60
35023;BME280;21214;44.912;8.204;2023-06-24T03:38:51;99864.53;;;20.39;83.39
35023;BME280;21214;44.912;8.204;2023-06-24T03:41:17;99873.88;;;20.22;85.28
35023;BME280;21214;44.912;8.204;2023-06-24T03:43:42;99874.28;;;20.19;85.28
35023;BME280;21214;44.912;8.204;2023-06-24T03:46:08;99874.28;;;20.19;85.61
35023;BME280;21214;44.912;8.204;2023-06-24T03:48:34;99881.31;;;20.20;85.43
35023;BME280;21214;44.912;8.204;2023-06-24T03:51:00;99868.53;;;20.22;84.91
35023;BME280;21214;44.912;8.204;2023-06-24T03:53:27;99878.03;;;20.24;84.93
35023;BME280;21214;44.912;8.204;2023-06-24T03:55:52;99878.06;;;20.31;84.61
35023;BME280;21214;44.912;8.204;2023-06-24T03:58:18;99885.88;;;20.26;85.43
35023;BME280;21214;44.912;8.204;2023-06-24T04:00:47;99887.44;;;20.14;85.98
35023;BME280;21214;44.912;8.204;2023-06-24T04:03:15;99896.84;;;20.03;87.43
35023;BME280;21214;44.912;8.204;2023-06-24T04:05:43;99885.31;;;20.02;87.54
35023;BME280;21214;44.912;8.204;2023-06-24T04:08:08;99891.44;;;19.96;88.16
35023;BME280;21214;44.912;8.204;2023-06-24T04:10:33;99892.41;;;19.89;89.28
35023;BME280;21214;44.912;8.204;2023-06-24T04:12:59;99887.13;;;19.95;89.28
35023;BME280;21214;44.912;8.204;2023-06-24T04:15:25;99894.84;;;19.84;90.28
35023;BME280;21214;44.912;8.204;2023-06-24T04:17:50;99894.16;;;19.75;91.34
35023;BME280;21214;44.912;8.204;2023-06-24T04:20:15;99902.59;;;19.72;91.76
35023;BME280;21214;44.912;8.204;2023-06-24T04:22:41;99904.13;;;19.60;92.30
35023;BME280;21214;44.912;8.204;2023-06-24T04:25:07;99907.63;;;19.60;92.69
35023;BME280;21214;44.912;8.204;2023-06-24T04:27:33;99898.88;;;19.52;92.97
35023;BME280;21214;44.912;8.204;2023-06-24T04:29:59;99897.97;;;19.45;93.71
35023;BME280;21214;44.912;8.204;2023-06-24T04:32:26;99908.34;;;19.48;93.98
35023;BME280;21214;44.912;8.204;2023-06-24T04:34:58;99908.41;;;19.54;93.90
35023;BME280;21214;44.912;8.204;2023-06-24T04:37:23;99908.06;;;19.64;93.74
35023;BME280;21214;44.912;8.204;2023-06-24T04:39:49;99917.63;;;19.73;93.43
35023;BME280;21214;44.912;8.204;2023-06-24T04:42:14;99922.34;;;19.71;93.82
35023;BME280;21214;44.912;8.204;2023-06-24T04:44:40;99926.22;;;19.69;94.33
35023;BME280;21214;44.912;8.204;2023-06-24T04:47:05;99926.69;;;19.72;94.41
35023;BME280;21214;44.912;8.204;2023-06-24T04:49:30;99926.03;;;19.70;94.03
35023;BME280;21214;44.912;8.204;2023-06-24T04:51:56;99931.63;;;19.75;94.08
35023;BME280;21214;44.912;8.204;2023-06-24T04:54:21;99930.81;;;19.75;94.70
35023;BME280;21214;44.912;8.204;2023-06-24T04:56:46;99928.78;;;19.77;94.08
35023;BME280;21214;44.912;8.204;2023-06-24T04:59:13;99935.72;;;19.71;94.55
35023;BME280;21214;44.912;8.204;2023-06-24T05:01:39;99931.66;;;19.18;97.08
35023;BME280;21214;44.912;8.204;2023-06-24T05:04:04;99926.94;;;18.84;99.78
35023;BME280;21214;44.912;8.204;2023-06-24T05:06:29;99931.81;;;18.80;99.87
35023;BME280;21214;44.912;8.204;2023-06-24T05:08:55;99936.19;;;18.67;100.00
35023;BME280;21214;44.912;8.204;2023-06-24T05:11:20;99935.81;;;18.70;99.79
35023;BME280;21214;44.912;8.204;2023-06-24T05:13:45;99937.28;;;18.58;100.00
35023;BME280;21214;44.912;8.204;2023-06-24T05:16:10;99942.53;;;18.66;98.75
35023;BME280;21214;44.912;8.204;2023-06-24T05:18:36;99944.19;;;18.81;98.24
35023;BME280;21214;44.912;8.204;2023-06-24T05:21:01;99951.81;;;18.99;98.36
35023;BME280;21214;44.912;8.204;2023-06-24T05:23:26;99946.47;;;18.99;99.27
35023;BME280;21214;44.912;8.204;2023-06-24T05:25:52;99958.06;;;19.06;99.18
35023;BME280;21214;44.912;8.204;2023-06-24T05:28:17;99962.75;;;19.19;98.97
35023;BME280;21214;44.912;8.204;2023-06-24T05:30:44;99965.63;;;19.39;98.30
35023;BME280;21214;44.912;8.204;2023-06-24T05:33:09;99956.38;;;19.56;97.90
35023;BME280;21214;44.912;8.204;2023-06-24T05:35:34;99958.41;;;19.75;97.69
35023;BME280;21214;44.912;8.204;2023-06-24T05:38:02;99963.84;;;19.82;97.27
35023;BME280;21214;44.912;8.204;2023-06-24T05:40:27;99965.31;;;19.84;97.67
35023;BME280;21214;44.912;8.204;2023-06-24T05:42:53;99966.81;;;19.93;97.60
35023;BME280;21214;44.912;8.204;2023-06-24T05:45:18;99965.63;;;19.96;98.22
35023;BME280;21214;44.912;8.204;2023-06-24T05:47:43;99968.78;;;20.06;98.08
35023;BME280;21214;44.912;8.204;2023-06-24T05:50:09;99971.13;;;20.16;97.29
35023;BME280;21214;44.912;8.204;2023-06-24T05:52:34;99965.34;;;20.12;97.66
35023;BME280;21214;44.912;8.204;2023-06-24T05:54:59;99980.16;;;20.15;98.50
35023;BME280;21214;44.912;8.204;2023-06-24T05:57:25;99976.72;;;20.21;98.38
35023;BME280;21214;44.912;8.204;2023-06-24T05:59:50;99984.44;;;20.30;98.11
35023;BME280;21214;44.912;8.204;2023-06-24T06:02:15;99978.50;;;20.35;98.46
35023;BME280;21214;44.912;8.204;2023-06-24T06:04:41;99971.34;;;20.42;98.30
35023;BME280;21214;44.912;8.204;2023-06-24T06:07:06;99971.44;;;20.55;97.97
35023;BME280;21214;44.912;8.204;2023-06-24T06:09:31;99970.66;;;20.61;98.47
35023;BME280;21214;44.912;8.204;2023-06-24T06:11:57;99979.16;;;20.71;99.49
35023;BME280;21214;44.912;8.204;2023-06-24T06:14:22;99982.72;;;20.78;99.24
35023;BME280;21214;44.912;8.204;2023-06-24T06:16:47;99985.63;;;20.83;99.25
35023;BME280;21214;44.912;8.204;2023-06-24T06:19:13;99977.41;;;20.92;99.36
35023;BME280;21214;44.912;8.204;2023-06-24T06:21:39;99978.63;;;20.89;99.58
35023;BME280;21214;44.912;8.204;2023-06-24T06:24:04;99977.63;;;20.90;100.00
35023;BME280;21214;44.912;8.204;2023-06-24T06:26:30;99988.78;;;20.94;100.00
35023;BME280;21214;44.912;8.204;2023-06-24T06:28:55;99988.00;;;21.06;100.00
35023;BME280;21214;44.912;8.204;2023-06-24T06:31:20;99987.88;;;21.21;100.00
35023;BME280;21214;44.912;8.204;2023-06-24T06:33:46;99989.19;;;21.32;100.00
35023;BME280;21214;44.912;8.204;2023-06-24T06:36:12;99983.84;;;21.38;100.00
35023;BME280;21214;44.912;8.204;2023-06-24T06:38:39;99989.22;;;21.51;99.87
35023;BME280;21214;44.912;8.204;2023-06-24T06:41:04;99993.78;;;21.64;99.81
35023;BME280;21214;44.912;8.204;2023-06-24T06:43:29;99985.97;;;21.76;99.35
35023;BME280;21214;44.912;8.204;2023-06-24T06:45:55;99988.66;;;21.89;98.75
35023;BME280;21214;44.912;8.204;2023-06-24T06:48:21;99995.28;;;21.93;99.19
35023;BME280;21214;44.912;8.204;2023-06-24T06:50:46;99992.81;;;21.98;98.64
35023;BME280;21214;44.912;8.204;2023-06-24T06:53:11;99994.28;;;22.07;98.28
35023;BME280;21214;44.912;8.204;2023-06-24T06:55:37;99985.41;;;22.13;98.40
35023;BME280;21214;44.912;8.204;2023-06-24T06:58:04;99977.94;;;22.28;97.35
35023;BME280;21214;44.912;8.204;2023-06-24T07:00:29;99985.81;;;22.36;97.31
35023;BME280;21214;44.912;8.204;2023-06-24T07:02:55;99985.56;;;22.44;97.00
35023;BME280;21214;44.912;8.204;2023-06-24T07:05:20;99977.72;;;22.50;96.53
35023;BME280;21214;44.912;8.204;2023-06-24T07:07:46;99985.97;;;22.61;96.54
35023;BME280;21214;44.912;8.204;2023-06-24T07:10:11;99981.41;;;22.75;96.68
35023;BME280;21214;44.912;8.204;2023-06-24T07:12:37;99985.94;;;22.81;95.17
35023;BME280;21214;44.912;8.204;2023-06-24T07:15:03;99978.69;;;22.88;94.83
35023;BME280;21214;44.912;8.204;2023-06-24T07:17:28;99989.63;;;23.00;93.72
35023;BME280;21214;44.912;8.204;2023-06-24T07:19:53;99981.53;;;23.06;92.95
35023;BME280;21214;44.912;8.204;2023-06-24T07:22:19;99986.66;;;23.14;91.59
35023;BME280;21214;44.912;8.204;2023-06-24T07:24:44;99988.06;;;23.23;91.03
35023;BME280;21214;44.912;8.204;2023-06-24T07:27:09;99997.56;;;23.33;88.81
35023;BME280;21214;44.912;8.204;2023-06-24T07:29:35;99995.22;;;23.43;88.38
35023;BME280;21214;44.912;8.204;2023-06-24T07:32:01;100004.31;;;23.55;86.43
35023;BME280;21214;44.912;8.204;2023-06-24T07:34:26;100007.56;;;23.63;84.53
35023;BME280;21214;44.912;8.204;2023-06-24T07:36:52;100004.16;;;23.75;82.44
35023;BME280;21214;44.912;8.204;2023-06-24T07:39:17;99996.66;;;23.83;81.82
35023;BME280;21214;44.912;8.204;2023-06-24T07:41:42;99994.91;;;23.95;81.45
35023;BME280;21214;44.912;8.204;2023-06-24T07:44:08;100000.66;;;24.05;80.20
35023;BME280;21214;44.912;8.204;2023-06-24T07:46:33;99999.94;;;24.17;79.24
35023;BME280;21214;44.912;8.204;2023-06-24T07:48:59;100003.81;;;24.27;78.72
35023;BME280;21214;44.912;8.204;2023-06-24T07:51:24;100002.50;;;24.36;76.65
35023;BME280;21214;44.912;8.204;2023-06-24T07:53:50;100002.81;;;24.46;74.62
35023;BME280;21214;44.912;8.204;2023-06-24T07:56:15;99995.25;;;24.55;73.33
35023;BME280;21214;44.912;8.204;2023-06-24T07:58:40;99993.91;;;24.64;73.66
35023;BME280;21214;44.912;8.204;2023-06-24T08:01:06;99997.53;;;24.76;71.29
35023;BME280;21214;44.912;8.204;2023-06-24T08:03:31;99989.13;;;24.84;70.46
35023;BME280;21214;44.912;8.204;2023-06-24T08:05:56;99994.88;;;24.95;68.77
35023;BME280;21214;44.912;8.204;2023-06-24T08:08:22;99987.53;;;25.02;64.89
35023;BME280;21214;44.912;8.204;2023-06-24T08:10:47;99992.16;;;25.13;57.69
35023;BME280;21214;44.912;8.204;2023-06-24T08:13:13;99987.03;;;25.23;57.77
35023;BME280;21214;44.912;8.204;2023-06-24T08:15:38;99984.03;;;25.31;58.77
35023;BME280;21214;44.912;8.204;2023-06-24T08:18:03;99989.09;;;25.39;57.09
35023;BME280;21214;44.912;8.204;2023-06-24T08:20:29;99994.78;;;25.49;57.49
35023;BME280;21214;44.912;8.204;2023-06-24T08:22:54;99995.31;;;25.58;46.75
35023;BME280;21214;44.912;8.204;2023-06-24T08:25:19;99995.97;;;25.72;41.19
35023;BME280;21214;44.912;8.204;2023-06-24T08:27:45;99985.88;;;25.79;44.69
35023;BME280;21214;44.912;8.204;2023-06-24T08:30:12;99991.31;;;25.90;42.34
35023;BME280;21214;44.912;8.204;2023-06-24T08:32:37;99988.63;;;26.02;40.67
35023;BME280;21214;44.912;8.204;2023-06-24T08:35:03;99980.16;;;26.10;38.39
35023;BME280;21214;44.912;8.204;2023-06-24T08:37:29;99981.94;;;26.16;38.84
35023;BME280;21214;44.912;8.204;2023-06-24T08:39:54;99984.34;;;26.24;37.90
35023;BME280;21214;44.912;8.204;2023-06-24T08:42:19;99981.75;;;26.29;37.49
35023;BME280;21214;44.912;8.204;2023-06-24T08:44:45;99984.56;;;26.34;38.17
35023;BME280;21214;44.912;8.204;2023-06-24T08:47:11;99981.97;;;26.39;37.21
35023;BME280;21214;44.912;8.204;2023-06-24T08:49:38;99981.53;;;26.42;36.62
35023;BME280;21214;44.912;8.204;2023-06-24T08:52:10;99978.91;;;26.47;36.99
35023;BME280;21214;44.912;8.204;2023-06-24T08:54:36;99982.34;;;26.55;37.47
35023;BME280;21214;44.912;8.204;2023-06-24T08:57:04;99980.47;;;26.55;35.74
35023;BME280;21214;44.912;8.204;2023-06-24T08:59:32;99976.44;;;26.58;36.92
35023;BME280;21214;44.912;8.204;2023-06-24T09:01:58;99973.84;;;26.63;37.43
35023;BME280;21214;44.912;8.204;2023-06-24T09:04:23;99985.63;;;26.68;37.21
35023;BME280;21214;44.912;8.204;2023-06-24T09:06:49;99982.22;;;26.73;37.48
35023;BME280;21214;44.912;8.204;2023-06-24T09:09:21;99980.66;;;26.77;37.06
35023;BME280;21214;44.912;8.204;2023-06-24T09:12:00;99972.88;;;26.80;38.22
35023;BME280;21214;44.912;8.204;2023-06-24T09:14:26;99975.25;;;26.88;38.47
35023;BME280;21214;44.912;8.204;2023-06-24T09:16:52;99970.75;;;26.94;37.56
35023;BME280;21214;44.912;8.204;2023-06-24T09:19:21;99967.94;;;27.01;38.22
35023;BME280;21214;44.912;8.204;2023-06-24T09:21:47;99969.44;;;27.08;38.16
35023;BME280;21214;44.912;8.204;2023-06-24T09:24:12;99968.22;;;27.16;38.30
35023;BME280;21214;44.912;8.204;2023-06-24T09:26:41;99964.94;;;27.14;36.69
35023;BME280;21214;44.912;8.204;2023-06-24T09:29:07;99970.13;;;27.15;37.18
35023;BME280;21214;44.912;8.204;2023-06-24T09:31:33;99963.16;;;27.19;38.14
35023;BME280;21214;44.912;8.204;2023-06-24T09:33:59;99954.06;;;27.25;38.42
35023;BME280;21214;44.912;8.204;2023-06-24T09:36:24;99960.66;;;27.29;37.84
35023;BME280;21214;44.912;8.204;2023-06-24T09:38:49;99957.19;;;27.34;38.54
35023;BME280;21214;44.912;8.204;2023-06-24T09:41:15;99958.03;;;27.35;37.13
35023;BME280;21214;44.912;8.204;2023-06-24T09:43:41;99949.66;;;27.36;37.63
35023;BME280;21214;44.912;8.204;2023-06-24T09:46:09;99949.44;;;27.38;37.60
35023;BME280;21214;44.912;8.204;2023-06-24T09:48:34;99948.47;;;27.44;37.95
35023;BME280;21214;44.912;8.204;2023-06-24T09:51:00;99945.25;;;27.47;37.35
35023;BME280;21214;44.912;8.204;2023-06-24T09:53:33;99955.16;;;27.53;38.48
35023;BME280;21214;44.912;8.204;2023-06-24T09:56:03;99956.28;;;27.57;36.86
35023;BME280;21214;44.912;8.204;2023-06-24T09:58:35;99948.97;;;27.57;37.58
35023;BME280;21214;44.912;8.204;2023-06-24T10:01:02;99942.75;;;27.57;37.13
35023;BME280;21214;44.912;8.204;2023-06-24T10:03:28;99944.16;;;27.59;37.57
35023;BME280;21214;44.912;8.204;2023-06-24T10:05:54;99942.84;;;27.62;37.39
35023;BME280;21214;44.912;8.204;2023-06-24T10:08:19;99940.69;;;27.64;36.32
35023;BME280;21214;44.912;8.204;2023-06-24T10:10:45;99938.56;;;27.66;35.69
35023;BME280;21214;44.912;8.204;2023-06-24T10:13:11;99938.06;;;27.69;36.50
35023;BME280;21214;44.912;8.204;2023-06-24T10:15:36;99941.97;;;27.73;37.27
35023;BME280;21214;44.912;8.204;2023-06-24T10:18:02;99943.09;;;27.77;36.02
35023;BME280;21214;44.912;8.204;2023-06-24T10:20:28;99940.72;;;27.81;36.60
35023;BME280;21214;44.912;8.204;2023-06-24T10:22:54;99938.59;;;27.83;36.38
35023;BME280;21214;44.912;8.204;2023-06-24T10:25:20;99935.13;;;27.87;37.22
35023;BME280;21214;44.912;8.204;2023-06-24T10:27:47;99931.94;;;27.90;36.54
35023;BME280;21214;44.912;8.204;2023-06-24T10:30:18;99935.78;;;27.94;35.02
35023;BME280;21214;44.912;8.204;2023-06-24T10:32:44;99935.31;;;27.97;35.16
35023;BME280;21214;44.912;8.204;2023-06-24T10:35:23;99929.38;;;28.00;35.31
35023;BME280;21214;44.912;8.204;2023-06-24T10:37:55;99922.66;;;28.03;32.04
35023;BME280;21214;44.912;8.204;2023-06-24T10:40:37;99926.75;;;28.05;32.72
35023;BME280;21214;44.912;8.204;2023-06-24T10:43:04;99922.97;;;28.06;32.92
35023;BME280;21214;44.912;8.204;2023-06-24T10:45:51;99924.09;;;28.10;32.21
35023;BME280;21214;44.912;8.204;2023-06-24T10:48:17;99925.75;;;28.11;32.72
35023;BME280;21214;44.912;8.204;2023-06-24T10:50:44;99921.53;;;28.16;32.64
35023;BME280;21214;44.912;8.204;2023-06-24T10:53:10;99916.16;;;28.21;33.47
35023;BME280;21214;44.912;8.204;2023-06-24T10:55:35;99919.44;;;28.23;33.96
35023;BME280;21214;44.912;8.204;2023-06-24T10:58:11;99909.16;;;28.25;33.74
35023;BME280;21214;44.912;8.204;2023-06-24T11:00:39;99910.00;;;28.25;31.57
35023;BME280;21214;44.912;8.204;2023-06-24T11:03:11;99909.75;;;28.27;32.69
35023;BME280;21214;44.912;8.204;2023-06-24T11:05:38;99903.56;;;28.31;32.93
35023;BME280;21214;44.912;8.204;2023-06-24T11:08:04;99896.31;;;28.37;31.93
35023;BME280;21214;44.912;8.204;2023-06-24T11:10:30;99891.94;;;28.36;32.53
35023;BME280;21214;44.912;8.204;2023-06-24T11:12:55;99890.88;;;28.37;32.73
35023;BME280;21214;44.912;8.204;2023-06-24T11:15:22;99890.38;;;28.40;32.04
35023;BME280;21214;44.912;8.204;2023-06-24T11:17:50;99885.75;;;28.40;32.79
35023;BME280;21214;44.912;8.204;2023-06-24T11:20:15;99886.09;;;28.44;32.64
35023;BME280;21214;44.912;8.204;2023-06-24T11:22:41;99885.09;;;28.50;32.91
35023;BME280;21214;44.912;8.204;2023-06-24T11:25:13;99884.56;;;28.53;32.57
35023;BME280;21214;44.912;8.204;2023-06-24T11:27:39;99886.28;;;28.59;31.91
35023;BME280;21214;44.912;8.204;2023-06-24T11:30:04;99875.47;;;28.64;31.46
35023;BME280;21214;44.912;8.204;2023-06-24T11:32:40;99873.84;;;28.63;30.67
35023;BME280;21214;44.912;8.204;2023-06-24T11:35:05;99879.28;;;28.63;29.65
35023;BME280;21214;44.912;8.204;2023-06-24T11:37:31;99872.78;;;28.64;29.81
35023;BME280;21214;44.912;8.204;2023-06-24T11:40:09;99875.00;;;28.67;28.85
35023;BME280;21214;44.912;8.204;2023-06-24T11:42:38;99870.44;;;28.73;30.07
35023;BME280;21214;44.912;8.204;2023-06-24T11:45:06;99873.81;;;28.80;31.09
35023;BME280;21214;44.912;8.204;2023-06-24T11:47:32;99867.03;;;28.82;31.01
35023;BME280;21214;44.912;8.204;2023-06-24T11:49:58;99870.97;;;28.92;30.41
35023;BME280;21214;44.912;8.204;2023-06-24T11:55:02;99862.34;;;29.00;30.14
35023;BME280;21214;44.912;8.204;2023-06-24T12:00:14;99864.72;;;29.18;31.14
35023;BME280;21214;44.912;8.204;2023-06-24T12:03:04;99865.91;;;29.27;30.89
35023;BME280;21214;44.912;8.204;2023-06-24T12:05:30;99863.59;;;29.41;30.43
35023;BME280;21214;44.912;8.204;2023-06-24T12:08:00;99852.00;;;29.50;28.41
35023;BME280;21214;44.912;8.204;2023-06-24T12:10:26;99851.50;;;29.58;28.18
35023;BME280;21214;44.912;8.204;2023-06-24T12:12:52;99845.63;;;29.71;28.97
35023;BME280;21214;44.912;8.204;2023-06-24T12:15:17;99847.91;;;29.85;28.69
35023;BME280;21214;44.912;8.204;2023-06-24T12:17:42;99847.75;;;29.96;28.74
35023;BME280;21214;44.912;8.204;2023-06-24T12:20:08;99842.34;;;30.01;28.29
35023;BME280;21214;44.912;8.204;2023-06-24T12:22:35;99842.69;;;30.15;28.04
35023;BME280;21214;44.912;8.204;2023-06-24T12:25:00;99843.31;;;30.32;27.71
35023;BME280;21214;44.912;8.204;2023-06-24T12:27:25;99834.16;;;30.48;27.20
35023;BME280;21214;44.912;8.204;2023-06-24T12:29:51;99833.66;;;30.57;26.72
35023;BME280;21214;44.912;8.204;2023-06-24T12:32:16;99828.81;;;30.69;26.33
35023;BME280;21214;44.912;8.204;2023-06-24T12:34:41;99824.47;;;30.88;25.40
35023;BME280;21214;44.912;8.204;2023-06-24T12:37:07;99830.50;;;30.95;25.01
35023;BME280;21214;44.912;8.204;2023-06-24T12:39:32;99827.78;;;31.00;25.97
35023;BME280;21214;44.912;8.204;2023-06-24T12:41:57;99825.13;;;31.20;28.76
35023;BME280;21214;44.912;8.204;2023-06-24T12:44:23;99819.09;;;31.28;26.42
35023;BME280;21214;44.912;8.204;2023-06-24T12:46:48;99815.03;;;31.36;27.75
35023;BME280;21214;44.912;8.204;2023-06-24T12:49:14;99822.41;;;31.51;26.89
35023;BME280;21214;44.912;8.204;2023-06-24T12:51:40;99812.59;;;31.65;27.06
35023;BME280;21214;44.912;8.204;2023-06-24T12:54:05;99815.84;;;31.77;28.19
35023;BME280;21214;44.912;8.204;2023-06-24T12:56:30;99811.47;;;31.86;26.58
35023;BME280;21214;44.912;8.204;2023-06-24T12:58:56;99817.72;;;32.02;27.56
35023;BME280;21214;44.912;8.204;2023-06-24T13:01:21;99797.22;;;32.20;28.07
35023;BME280;21214;44.912;8.204;2023-06-24T13:03:46;99802.09;;;32.23;25.54
35023;BME280;21214;44.912;8.204;2023-06-24T13:06:12;99804.28;;;32.26;26.61
35023;BME280;21214;44.912;8.204;2023-06-24T13:08:39;99806.97;;;32.36;26.38
35023;BME280;21214;44.912;8.204;2023-06-24T13:11:04;99799.81;;;32.50;25.54
35023;BME280;21214;44.912;8.204;2023-06-24T13:13:29;99795.38;;;32.59;26.38
35023;BME280;21214;44.912;8.204;2023-06-24T13:15:55;99791.50;;;32.80;25.81
35023;BME280;21214;44.912;8.204;2023-06-24T13:18:20;99785.38;;;32.93;24.92